Time;durP1;ratioP1;P1;durP2;ratioP2;P2;SDS_P1;SDS_P2;PMS_P1;PMS_P2;Temp;Humidity;BMP_temperature;BMP_pressure;BME280_temperature;BME280_humidity;BME280_pressure;Samples;Min_cycle;Max_cycle;Signal;HPM_P1;HPM_P2
2022/03/29 00:02:24;;;;;;;;;;;;;;;18.76;29.77;98918.22;4465481;32;33579;-82
2022/03/29 00:04:51;;;;;;;;;;;;;;;18.66;29.86;98917.53;4466748;32;34810;-83
2022/03/29 00:07:19;;;;;;;;;;;;;;;18.67;29.98;98907.88;4466921;32;34577;-82
2022/03/29 00:09:46;;;;;;;;;;;;;;;18.78;29.76;98907.66;4461173;32;34203;-81
2022/03/29 00:12:13;;;;;;;;;;;;;;;18.66;29.97;98914.91;4466036;32;33527;-81
2022/03/29 00:14:40;;;;;;;;;;;;;;;18.86;29.67;98911.81;4464931;32;33818;-82
2022/03/29 00:17:07;;;;;;;;;;;;;;;18.80;29.71;98901.47;4452675;32;35360;-81
2022/03/29 00:19:35;;;;;;;;;;;;;;;18.87;29.76;98900.44;4440568;32;34883;-80
2022/03/29 00:22:03;;;;;;;;;;;;;;;19.04;29.28;98891.25;4458116;32;33105;-80
2022/03/29 00:24:30;;;;;;;;;;;;;;;19.02;29.42;98887.81;4464689;32;34260;-81
2022/03/29 00:26:58;;;;;;;;;;;;;;;19.06;29.17;98884.19;4468048;32;35126;-82
2022/03/29 00:29:25;;;;;;;;;;;;;;;18.92;29.42;98882.78;4464447;32;34129;-83
2022/03/29 00:31:52;;;;;;;;;;;;;;;18.97;29.36;98880.03;4456514;32;33978;-82
2022/03/29 00:34:20;;;;;;;;;;;;;;;18.93;29.39;98873.13;4458206;32;32721;-83
2022/03/29 00:36:47;;;;;;;;;;;;;;;18.84;29.46;98876.88;4465834;32;34927;-82
2022/03/29 00:39:15;;;;;;;;;;;;;;;18.87;29.47;98865.44;4455338;32;35184;-82
2022/03/29 00:41:42;;;;;;;;;;;;;;;18.86;29.36;98869.78;4467091;32;33811;-83
2022/03/29 00:44:09;;;;;;;;;;;;;;;18.88;29.38;98865.37;4452818;32;35013;-83
2022/03/29 00:46:36;;;;;;;;;;;;;;;18.79;29.44;98865.63;4454685;32;34192;-83
2022/03/29 00:49:04;;;;;;;;;;;;;;;18.85;29.44;98860.19;4463427;32;34375;-81
2022/03/29 00:51:31;;;;;;;;;;;;;;;18.84;29.33;98861.09;4467675;32;32878;-83
2022/03/29 00:53:58;;;;;;;;;;;;;;;18.74;29.57;98859.59;4442038;32;34232;-84
2022/03/29 00:56:26;;;;;;;;;;;;;;;18.81;29.36;98858.53;4467792;32;34479;-83
2022/03/29 00:58:53;;;;;;;;;;;;;;;18.81;29.34;98855.94;4463751;32;35251;-83
2022/03/29 01:01:20;;;;;;;;;;;;;;;18.64;29.48;98853.69;4452874;32;34007;-83
2022/03/29 01:03:48;;;;;;;;;;;;;;;18.71;29.58;98844.81;4451216;32;33931;-83
2022/03/29 01:06:16;;;;;;;;;;;;;;;18.92;29.29;98840.75;4466942;32;35078;-81
2022/03/29 01:08:44;;;;;;;;;;;;;;;18.61;29.72;98830.13;4454761;32;34318;-81
2022/03/29 01:11:12;;;;;;;;;;;;;;;18.65;29.47;98830.94;4438615;32;33161;-83
2022/03/29 01:13:41;;;;;;;;;;;;;;;18.57;29.57;98832.88;4456437;32;34909;-82
2022/03/29 01:18:54;;;;;;;;;;;;;;;18.52;29.57;98830.34;4447972;32;34113;-83
2022/03/29 01:21:22;;;;;;;;;;;;;;;18.48;29.64;98829.56;4448244;32;34243;-82
2022/03/29 01:23:49;;;;;;;;;;;;;;;18.59;29.39;98829.31;4455210;32;35167;-82
2022/03/29 01:26:16;;;;;;;;;;;;;;;18.53;29.38;98829.47;4459989;32;34306;-82
2022/03/29 01:28:43;;;;;;;;;;;;;;;18.50;29.53;98821.66;4461938;32;35209;-84
2022/03/29 01:31:13;;;;;;;;;;;;;;;18.37;29.72;98821.13;4438290;32;34363;-82
2022/03/29 01:33:41;;;;;;;;;;;;;;;18.55;29.45;98821.56;4439563;32;34417;-83
2022/03/29 01:36:08;;;;;;;;;;;;;;;18.40;29.67;98823.66;4442910;32;34491;-82
2022/03/29 01:38:35;;;;;;;;;;;;;;;18.30;29.83;98816.91;4451876;32;34296;-82
2022/03/29 01:41:05;;;;;;;;;;;;;;;18.45;29.63;98816.53;4464939;32;33363;-82
2022/03/29 01:43:32;;;;;;;;;;;;;;;18.34;29.77;98812.47;4442076;32;33563;-82
2022/03/29 01:46:00;;;;;;;;;;;;;;;18.36;29.69;98801.00;4464399;32;33057;-83
2022/03/29 01:48:27;;;;;;;;;;;;;;;17.83;30.54;98800.50;4467688;32;35176;-83
2022/03/29 01:50:54;;;;;;;;;;;;;;;18.05;30.21;98790.38;4452922;32;33238;-81
2022/03/29 01:53:23;;;;;;;;;;;;;;;18.14;29.99;98786.69;4459467;32;34252;-80
2022/03/29 01:55:57;;;;;;;;;;;;;;;18.18;30.04;98781.34;4441097;32;34102;-82
2022/03/29 01:58:24;;;;;;;;;;;;;;;18.08;30.12;98781.59;4438473;32;34148;-82
2022/03/29 02:00:52;;;;;;;;;;;;;;;17.97;30.29;98787.09;4452799;32;33533;-82
2022/03/29 02:03:20;;;;;;;;;;;;;;;17.93;30.61;98783.66;4462917;32;34126;-82
2022/03/29 02:05:48;;;;;;;;;;;;;;;18.02;30.53;98779.09;4454677;32;34999;-81
2022/03/29 02:08:16;;;;;;;;;;;;;;;18.15;30.24;98777.94;4467129;32;34213;-81
2022/03/29 02:10:43;;;;;;;;;;;;;;;17.95;30.48;98774.00;4453533;32;34240;-83
2022/03/29 02:13:11;;;;;;;;;;;;;;;17.86;30.76;98765.50;4460361;32;35142;-82
2022/03/29 02:15:38;;;;;;;;;;;;;;;18.07;30.49;98764.09;4465419;32;33863;-82
2022/03/29 02:18:06;;;;;;;;;;;;;;;17.91;30.82;98756.59;4460078;32;34536;-82
2022/03/29 02:20:33;;;;;;;;;;;;;;;17.88;31.14;98758.44;4464349;32;34245;-81
2022/03/29 02:23:04;;;;;;;;;;;;;;;17.97;31.09;98756.47;4459861;32;33990;-81
2022/03/29 02:25:32;;;;;;;;;;;;;;;18.12;30.73;98757.88;4463599;32;35318;-82
2022/03/29 02:27:59;;;;;;;;;;;;;;;18.07;30.74;98754.50;4464737;32;35011;-82
2022/03/29 02:30:29;;;;;;;;;;;;;;;18.16;30.79;98750.78;4449773;32;33401;-80
2022/03/29 02:32:56;;;;;;;;;;;;;;;18.28;30.53;98742.59;4457847;32;33814;-82
2022/03/29 02:35:24;;;;;;;;;;;;;;;18.24;30.68;98751.44;4457007;32;33974;-82
2022/03/29 02:37:51;;;;;;;;;;;;;;;18.16;30.97;98742.91;4453384;32;33827;-82
2022/03/29 02:40:20;;;;;;;;;;;;;;;18.20;30.89;98739.31;4463944;32;34200;-83
2022/03/29 02:42:49;;;;;;;;;;;;;;;17.92;31.51;98742.63;4452001;32;34940;-82
2022/03/29 02:45:18;;;;;;;;;;;;;;;17.83;31.55;98750.69;4443317;32;34419;-81
2022/03/29 02:47:46;;;;;;;;;;;;;;;18.09;30.93;98738.72;4461280;32;34235;-83
2022/03/29 02:50:14;;;;;;;;;;;;;;;18.09;30.95;98746.59;4466911;32;32827;-82
2022/03/29 02:52:41;;;;;;;;;;;;;;;18.20;30.97;98744.56;4465387;32;33920;-82
2022/03/29 02:55:09;;;;;;;;;;;;;;;18.26;30.79;98726.06;4452416;32;35289;-82
2022/03/29 02:57:37;;;;;;;;;;;;;;;18.23;30.67;98734.00;4451791;32;35114;-82
2022/03/29 03:00:05;;;;;;;;;;;;;;;18.25;30.50;98732.19;4465604;32;33095;-81
2022/03/29 03:02:32;;;;;;;;;;;;;;;18.22;30.58;98729.63;4447944;32;34802;-82
2022/03/29 03:05:00;;;;;;;;;;;;;;;18.19;30.63;98734.97;4457153;32;35202;-82
2022/03/29 03:07:28;;;;;;;;;;;;;;;18.19;30.59;98730.59;4452113;32;33858;-83
2022/03/29 03:09:56;;;;;;;;;;;;;;;18.18;30.71;98727.97;4459212;32;33604;-84
2022/03/29 03:12:23;;;;;;;;;;;;;;;18.12;30.72;98733.41;4463458;32;34887;-82
2022/03/29 03:14:50;;;;;;;;;;;;;;;18.07;30.63;98725.66;4458528;32;34699;-83
2022/03/29 03:17:18;;;;;;;;;;;;;;;17.92;31.01;98737.38;4457064;32;34126;-83
2022/03/29 03:19:45;;;;;;;;;;;;;;;17.56;31.71;98728.56;4443863;32;33399;-83
2022/03/29 03:22:12;;;;;;;;;;;;;;;17.73;31.40;98730.81;4448663;32;33885;-83
2022/03/29 03:24:40;;;;;;;;;;;;;;;17.90;31.38;98726.03;4458874;32;33720;-82
2022/03/29 03:27:07;;;;;;;;;;;;;;;17.70;31.79;98730.88;4466116;32;33927;-83
2022/03/29 03:29:34;;;;;;;;;;;;;;;17.75;31.59;98731.66;4463152;32;33333;-81
2022/03/29 03:32:02;;;;;;;;;;;;;;;17.84;31.55;98725.31;4453824;32;34540;-82
2022/03/29 03:34:29;;;;;;;;;;;;;;;17.86;31.23;98715.66;4462525;32;34467;-82
2022/03/29 03:36:57;;;;;;;;;;;;;;;18.02;31.05;98711.75;4458923;32;33962;-83
2022/03/29 03:39:25;;;;;;;;;;;;;;;17.88;31.21;98706.88;4461010;32;34224;-83
2022/03/29 03:41:52;;;;;;;;;;;;;;;17.97;31.06;98709.25;4465220;32;34319;-83
2022/03/29 03:44:22;;;;;;;;;;;;;;;17.82;31.46;98712.25;4465608;32;33945;-83
2022/03/29 03:46:50;;;;;;;;;;;;;;;17.60;31.82;98713.63;4456676;32;33831;-83
2022/03/29 03:49:17;;;;;;;;;;;;;;;17.71;31.57;98706.37;4467546;32;33387;-83
2022/03/29 03:51:44;;;;;;;;;;;;;;;17.70;31.65;98704.66;4467955;32;34329;-83
2022/03/29 03:54:11;;;;;;;;;;;;;;;17.65;31.72;98702.16;4460441;32;34438;-83
2022/03/29 03:56:39;;;;;;;;;;;;;;;17.52;32.12;98706.78;4467584;32;34469;-82
2022/03/29 03:59:06;;;;;;;;;;;;;;;17.55;32.16;98705.00;4466769;32;33440;-83
2022/03/29 04:01:34;;;;;;;;;;;;;;;17.56;32.03;98702.34;4453697;32;34823;-83
2022/03/29 04:04:02;;;;;;;;;;;;;;;17.73;31.88;98701.97;4459865;32;34315;-83
2022/03/29 04:06:29;;;;;;;;;;;;;;;17.45;32.39;98699.97;4453881;32;34125;-82
2022/03/29 04:08:56;;;;;;;;;;;;;;;17.83;31.66;98698.25;4465136;32;33199;-84
2022/03/29 04:11:24;;;;;;;;;;;;;;;17.90;31.65;98691.94;4462063;32;34552;-83
2022/03/29 04:13:51;;;;;;;;;;;;;;;17.65;32.06;98693.38;4452978;32;34287;-82
2022/03/29 04:16:18;;;;;;;;;;;;;;;17.84;31.73;98692.13;4461977;32;34290;-84
2022/03/29 04:18:46;;;;;;;;;;;;;;;17.65;32.17;98694.28;4463984;32;33606;-83
2022/03/29 04:21:13;;;;;;;;;;;;;;;17.16;33.10;98690.13;4461097;32;33726;-82
2022/03/29 04:23:40;;;;;;;;;;;;;;;17.50;32.68;98697.22;4466747;32;34460;-81
2022/03/29 04:26:07;;;;;;;;;;;;;;;17.79;32.11;98696.59;4458127;32;32525;-82
2022/03/29 04:28:35;;;;;;;;;;;;;;;17.87;32.18;98691.16;4465355;32;34239;-82
2022/03/29 04:31:02;;;;;;;;;;;;;;;18.00;31.96;98687.34;4465009;32;35168;-81
2022/03/29 04:33:29;;;;;;;;;;;;;;;18.02;32.05;98689.91;4455510;32;34293;-83
2022/03/29 04:35:56;;;;;;;;;;;;;;;17.77;32.63;98695.78;4455059;32;34114;-80
2022/03/29 04:38:23;;;;;;;;;;;;;;;17.96;32.18;98691.81;4465383;32;33320;-81
2022/03/29 04:40:51;;;;;;;;;;;;;;;18.27;31.86;98677.91;4467588;32;34074;-81
2022/03/29 04:43:18;;;;;;;;;;;;;;;18.30;31.74;98683.09;4467592;32;35250;-80
2022/03/29 04:45:45;;;;;;;;;;;;;;;17.88;32.29;98678.03;4463788;32;34195;-80
2022/03/29 04:48:14;;;;;;;;;;;;;;;18.04;32.26;98672.41;4462745;32;33865;-79
2022/03/29 04:50:41;;;;;;;;;;;;;;;18.19;31.83;98675.50;4463044;32;34998;-81
2022/03/29 04:53:08;;;;;;;;;;;;;;;18.14;31.76;98664.22;4467520;32;34479;-81
2022/03/29 04:55:35;;;;;;;;;;;;;;;18.04;31.95;98667.16;4467942;32;34322;-82
2022/03/29 04:58:02;;;;;;;;;;;;;;;18.17;31.74;98664.16;4465723;32;33298;-83
2022/03/29 05:00:30;;;;;;;;;;;;;;;18.33;31.49;98669.00;4466509;32;34284;-81
2022/03/29 05:02:57;;;;;;;;;;;;;;;18.28;31.48;98666.50;4453352;32;34418;-83
2022/03/29 05:05:25;;;;;;;;;;;;;;;18.28;31.36;98653.38;4453368;32;33661;-81
2022/03/29 05:07:52;;;;;;;;;;;;;;;18.44;31.16;98662.56;4453031;32;33420;-85
2022/03/29 05:10:20;;;;;;;;;;;;;;;18.58;30.93;98658.72;4462002;32;34363;-83
2022/03/29 05:12:48;;;;;;;;;;;;;;;18.71;30.58;98660.09;4466552;32;35100;-84
2022/03/29 05:15:16;;;;;;;;;;;;;;;19.09;30.38;98655.50;4467545;32;33662;-83
2022/03/29 05:17:44;;;;;;;;;;;;;;;18.89;30.47;98664.84;4453630;32;33111;-83
2022/03/29 05:20:11;;;;;;;;;;;;;;;18.55;30.62;98661.41;4463656;32;34194;-84
2022/03/29 05:22:48;;;;;;;;;;;;;;;18.48;30.89;98666.81;4452539;32;33891;-83
2022/03/29 05:25:17;;;;;;;;;;;;;;;18.90;30.86;98669.22;4464365;32;34201;-82
2022/03/29 05:27:44;;;;;;;;;;;;;;;18.54;31.04;98670.19;4466614;32;33615;-81
2022/03/29 05:30:12;;;;;;;;;;;;;;;18.51;31.11;98672.91;4449939;32;35084;-82
2022/03/29 05:32:39;;;;;;;;;;;;;;;19.11;30.25;98658.97;4454468;32;34173;-81
2022/03/29 05:35:08;;;;;;;;;;;;;;;19.19;30.48;98668.34;4458730;32;34315;-83
2022/03/29 05:37:36;;;;;;;;;;;;;;;18.82;31.00;98672.94;4453876;32;33581;-83
2022/03/29 05:40:04;;;;;;;;;;;;;;;19.30;30.30;98670.62;4467885;32;34546;-83
2022/03/29 05:42:31;;;;;;;;;;;;;;;19.61;30.27;98672.31;4467864;32;34402;-83
2022/03/29 05:44:58;;;;;;;;;;;;;;;19.82;29.95;98676.06;4467614;32;34180;-84
2022/03/29 05:50:11;;;;;;;;;;;;;;;19.90;29.80;98667.00;4467958;32;33726;-83
2022/03/29 05:52:39;;;;;;;;;;;;;;;20.15;29.33;98677.59;4467878;32;33909;-83
2022/03/29 05:55:06;;;;;;;;;;;;;;;20.12;28.74;98672.41;4468030;32;34265;-83
2022/03/29 05:57:34;;;;;;;;;;;;;;;20.55;28.38;98665.69;4467739;32;32921;-84
2022/03/29 06:00:01;;;;;;;;;;;;;;;20.44;28.61;98678.34;4466527;32;34029;-84
2022/03/29 06:02:29;;;;;;;;;;;;;;;20.10;28.53;98668.09;4467795;32;35369;-83
2022/03/29 06:04:56;;;;;;;;;;;;;;;20.21;28.28;98667.75;4453525;32;35097;-83
2022/03/29 06:07:24;;;;;;;;;;;;;;;19.90;29.06;98672.28;4467643;32;33883;-84
2022/03/29 06:09:51;;;;;;;;;;;;;;;19.74;28.19;98665.78;4467600;32;34129;-84
2022/03/29 06:12:20;;;;;;;;;;;;;;;19.84;28.27;98661.94;4453257;32;34469;-83
2022/03/29 06:14:47;;;;;;;;;;;;;;;19.39;29.03;98670.34;4467544;32;34787;-83
2022/03/29 06:17:15;;;;;;;;;;;;;;;20.23;27.67;98666.78;4467834;32;34212;-84
2022/03/29 06:19:43;;;;;;;;;;;;;;;20.11;27.64;98659.28;4467338;32;34178;-83
2022/03/29 06:22:10;;;;;;;;;;;;;;;19.79;27.61;98663.88;4453422;32;34962;-84
2022/03/29 06:24:38;;;;;;;;;;;;;;;20.18;27.34;98666.06;4467464;32;34300;-84
2022/03/29 06:27:06;;;;;;;;;;;;;;;20.04;27.53;98653.41;4453277;32;33378;-84
2022/03/29 06:29:36;;;;;;;;;;;;;;;18.99;28.90;98654.09;4467577;32;34397;-83
2022/03/29 06:32:03;;;;;;;;;;;;;;;19.72;27.99;98656.22;4467390;32;34275;-84
2022/03/29 06:34:31;;;;;;;;;;;;;;;19.49;27.98;98655.16;4467239;32;35078;-88
2022/03/29 06:36:59;;;;;;;;;;;;;;;20.00;27.95;98648.28;4467517;32;33395;-84
2022/03/29 06:39:26;;;;;;;;;;;;;;;19.35;27.87;98646.84;4467149;32;34993;-84
2022/03/29 06:41:55;;;;;;;;;;;;;;;19.88;26.90;98642.50;4466973;32;35386;-84
2022/03/29 06:44:23;;;;;;;;;;;;;;;19.63;27.86;98647.72;4467225;32;33822;-83
2022/03/29 06:46:51;;;;;;;;;;;;;;;19.38;27.40;98652.00;4467226;32;33415;-83
2022/03/29 06:49:19;;;;;;;;;;;;;;;19.24;27.90;98649.78;4453008;32;34409;-84
2022/03/29 06:51:47;;;;;;;;;;;;;;;20.24;26.64;98647.44;4466987;32;34499;-84
2022/03/29 06:54:15;;;;;;;;;;;;;;;20.22;26.65;98643.13;4467126;32;34397;-83
2022/03/29 06:56:42;;;;;;;;;;;;;;;18.58;28.83;98643.81;4452552;32;33128;-83
2022/03/29 06:59:10;;;;;;;;;;;;;;;19.88;26.94;98639.03;4466784;32;35034;-83
2022/03/29 07:01:37;;;;;;;;;;;;;;;19.80;27.02;98643.69;4466543;32;34335;-83
2022/03/29 07:04:07;;;;;;;;;;;;;;;19.37;27.79;98645.88;4466693;32;35087;-83
2022/03/29 07:06:34;;;;;;;;;;;;;;;19.96;26.55;98644.03;4452988;32;32779;-87
2022/03/29 07:12:11;;;;;;;;;;;;;;;21.03;25.22;98637.59;4467438;32;35113;-84
2022/03/29 07:14:39;;;;;;;;;;;;;;;20.96;24.89;98630.84;4468393;32;34348;-83
2022/03/29 07:17:10;;;;;;;;;;;;;;;20.83;25.37;98633.91;4468765;32;34333;-83
2022/03/29 07:19:37;;;;;;;;;;;;;;;21.09;24.91;98637.34;4468810;32;34210;-84
2022/03/29 07:22:06;;;;;;;;;;;;;;;21.71;24.06;98634.06;4468509;32;34363;-84
2022/03/29 07:24:33;;;;;;;;;;;;;;;20.37;25.88;98634.69;4468696;32;34602;-87
2022/03/29 07:27:01;;;;;;;;;;;;;;;20.87;25.24;98632.91;4454394;32;32362;-83
2022/03/29 07:29:28;;;;;;;;;;;;;;;21.38;25.13;98638.91;4468448;32;34592;-83
2022/03/29 07:31:55;;;;;;;;;;;;;;;21.73;24.25;98632.19;4468463;32;34810;-84
2022/03/29 07:34:22;;;;;;;;;;;;;;;22.04;23.13;98633.53;4468606;32;34140;-83
2022/03/29 07:36:50;;;;;;;;;;;;;;;21.12;24.29;98637.22;4468529;32;33596;-83
2022/03/29 07:39:18;;;;;;;;;;;;;;;20.54;25.37;98634.16;4468414;32;35014;-83
2022/03/29 07:41:45;;;;;;;;;;;;;;;21.44;24.00;98629.87;4468435;32;34443;-84
2022/03/29 07:44:13;;;;;;;;;;;;;;;20.25;25.45;98629.87;4468293;32;33997;-84
2022/03/29 07:46:40;;;;;;;;;;;;;;;21.31;24.71;98626.84;4468482;32;33069;-84
2022/03/29 07:49:07;;;;;;;;;;;;;;;21.99;24.10;98623.19;4468586;32;34196;-83
2022/03/29 07:51:55;;;;;;;;;;;;;;;21.99;24.18;98624.97;4468497;32;34131;-84
2022/03/29 07:54:23;;;;;;;;;;;;;;;22.51;23.64;98620.13;4468436;32;34112;-83
2022/03/29 07:56:50;;;;;;;;;;;;;;;22.12;23.57;98626.16;4468057;32;34064;-83
2022/03/29 07:59:17;;;;;;;;;;;;;;;22.94;22.61;98613.75;4468284;32;34902;-83
2022/03/29 08:01:44;;;;;;;;;;;;;;;22.94;22.84;98616.41;4468310;32;34583;-86
2022/03/29 08:04:12;;;;;;;;;;;;;;;22.88;22.63;98618.44;4468149;32;35322;-85
2022/03/29 08:06:39;;;;;;;;;;;;;;;23.73;21.64;98621.50;4468303;32;34276;-83
2022/03/29 08:09:06;;;;;;;;;;;;;;;23.20;22.36;98620.47;4468555;32;33987;-83
2022/03/29 08:11:36;;;;;;;;;;;;;;;22.99;21.90;98610.88;4468198;32;33955;-83
2022/03/29 08:14:03;;;;;;;;;;;;;;;23.33;21.56;98614.59;4468632;32;34956;-83
2022/03/29 08:16:33;;;;;;;;;;;;;;;22.97;21.84;98613.63;4468354;32;34139;-85
2022/03/29 08:19:00;;;;;;;;;;;;;;;22.82;21.91;98617.78;4468184;32;34395;-88
2022/03/29 08:24:14;;;;;;;;;;;;;;;22.33;22.59;98609.44;4467670;32;33723;-83
2022/03/29 08:26:41;;;;;;;;;;;;;;;23.59;21.43;98606.25;4468259;32;34211;-84
2022/03/29 08:29:08;;;;;;;;;;;;;;;23.09;21.61;98611.34;4468149;32;33647;-87
2022/03/29 08:31:36;;;;;;;;;;;;;;;22.16;23.04;98611.97;4453994;32;33446;-86
2022/03/29 08:34:03;;;;;;;;;;;;;;;22.26;22.66;98602.69;4468043;32;34916;-83
2022/03/29 08:36:30;;;;;;;;;;;;;;;22.38;22.85;98598.66;4468150;32;32989;-85
2022/03/29 08:38:58;;;;;;;;;;;;;;;23.00;22.19;98602.06;4467814;32;34879;-83
2022/03/29 08:41:25;;;;;;;;;;;;;;;23.16;21.96;98603.03;4468135;32;33705;-84
2022/03/29 08:43:52;;;;;;;;;;;;;;;23.17;21.53;98604.75;4454059;32;34196;-84
2022/03/29 08:46:20;;;;;;;;;;;;;;;22.83;22.20;98601.00;4453892;32;33114;-84
2022/03/29 08:48:48;;;;;;;;;;;;;;;23.43;21.66;98598.22;4468104;32;34922;-85
2022/03/29 08:51:16;;;;;;;;;;;;;;;22.26;23.86;98589.50;4453958;32;35138;-85
2022/03/29 08:53:59;;;;;;;;;;;;;;;21.60;23.58;98594.06;4467778;32;35098;-84
2022/03/29 08:56:27;;;;;;;;;;;;;;;22.50;23.00;98586.69;4468159;32;34359;-83
2022/03/29 08:58:54;;;;;;;;;;;;;;;23.16;22.27;98587.19;4468156;32;34341;-87
2022/03/29 09:01:23;;;;;;;;;;;;;;;23.96;22.08;98593.88;4467901;32;35338;-83
2022/03/29 09:04:03;;;;;;;;;;;;;;;24.36;20.83;98582.06;4468015;32;34329;-83
2022/03/29 09:06:31;;;;;;;;;;;;;;;24.60;20.91;98579.06;4468117;32;33524;-84
2022/03/29 09:08:58;;;;;;;;;;;;;;;24.64;20.79;98570.88;4467984;32;34926;-84
2022/03/29 09:11:26;;;;;;;;;;;;;;;23.46;22.02;98579.53;4467758;32;33958;-83
2022/03/29 09:14:03;;;;;;;;;;;;;;;24.41;21.55;98582.69;4453878;32;34356;-84
2022/03/29 09:16:31;;;;;;;;;;;;;;;24.57;21.30;98561.53;4468022;32;34297;-84
2022/03/29 09:18:59;;;;;;;;;;;;;;;24.33;21.84;98570.78;4467924;32;34948;-83
2022/03/29 09:21:27;;;;;;;;;;;;;;;24.62;20.90;98567.44;4467592;32;34578;-84
2022/03/29 09:24:06;;;;;;;;;;;;;;;24.99;20.65;98566.28;4467636;32;34653;-84
2022/03/29 09:26:34;;;;;;;;;;;;;;;25.17;20.23;98553.81;4468090;32;33175;-83
2022/03/29 09:29:01;;;;;;;;;;;;;;;24.87;20.41;98566.97;4453584;32;32597;-83
2022/03/29 09:31:28;;;;;;;;;;;;;;;23.13;22.40;98567.94;4467598;32;35387;-84
2022/03/29 09:34:15;;;;;;;;;;;;;;;23.45;22.91;98564.62;4467160;32;34998;-83
2022/03/29 09:36:43;;;;;;;;;;;;;;;24.33;21.41;98560.19;4467397;32;33407;-84
2022/03/29 09:39:29;;;;;;;;;;;;;;;24.55;20.92;98550.19;4467726;32;33611;-84
2022/03/29 09:41:58;;;;;;;;;;;;;;;23.37;21.55;98564.09;4467509;32;34235;-83
2022/03/29 09:44:33;;;;;;;;;;;;;;;24.78;20.32;98556.03;4467901;32;34801;-83
2022/03/29 09:47:04;;;;;;;;;;;;;;;25.16;19.87;98546.81;4467603;32;33593;-83
2022/03/29 09:49:48;;;;;;;;;;;;;;;24.92;19.90;98542.84;4467737;32;35141;-84
2022/03/29 09:52:16;;;;;;;;;;;;;;;23.27;21.42;98553.13;4453636;32;34344;-83
2022/03/29 09:55:02;;;;;;;;;;;;;;;25.26;19.34;98535.66;4467550;32;34020;-84
2022/03/29 09:57:49;;;;;;;;;;;;;;;24.91;19.71;98547.28;4467527;32;34371;-83
2022/03/29 10:00:17;;;;;;;;;;;;;;;25.35;19.16;98543.13;4467294;32;34262;-83
2022/03/29 10:02:45;;;;;;;;;;;;;;;25.63;18.81;98535.25;4467516;32;35252;-84
2022/03/29 10:05:12;;;;;;;;;;;;;;;25.85;18.44;98534.00;4467309;32;34562;-84
2022/03/29 10:07:44;;;;;;;;;;;;;;;24.98;19.79;98537.19;4453299;32;33816;-83
2022/03/29 10:10:11;;;;;;;;;;;;;;;24.96;19.54;98523.16;4467423;32;34377;-84
2022/03/29 10:12:39;;;;;;;;;;;;;;;25.33;19.84;98521.09;4467307;32;35037;-83
2022/03/29 10:15:26;;;;;;;;;;;;;;;25.88;19.12;98515.25;4467437;32;35016;-84
2022/03/29 10:17:55;;;;;;;;;;;;;;;25.62;20.09;98512.31;4467353;32;33033;-84
2022/03/29 10:20:22;;;;;;;;;;;;;;;24.88;19.41;98505.03;4467333;32;33988;-87
2022/03/29 10:22:50;;;;;;;;;;;;;;;25.75;18.39;98495.62;4453396;32;34394;-83
2022/03/29 10:25:18;;;;;;;;;;;;;;;25.75;17.27;98492.97;4467268;32;34985;-85
2022/03/29 10:27:47;;;;;;;;;;;;;;;24.62;18.50;98498.53;4467417;32;33635;-84
2022/03/29 10:30:29;;;;;;;;;;;;;;;25.41;18.33;98482.56;4453171;32;34869;-85
2022/03/29 10:33:14;;;;;;;;;;;;;;;24.57;19.08;98473.22;4453197;32;33751;-83
2022/03/29 10:36:00;;;;;;;;;;;;;;;24.43;18.31;98477.47;4467050;32;35114;-85
2022/03/29 10:38:42;;;;;;;;;;;;;;;24.27;18.23;98482.72;4467212;32;33426;-83
2022/03/29 10:41:28;;;;;;;;;;;;;;;23.94;18.52;98469.50;4467054;32;33981;-83
2022/03/29 10:44:04;;;;;;;;;;;;;;;25.66;17.61;98460.75;4467028;32;34543;-83
2022/03/29 10:46:39;;;;;;;;;;;;;;;26.31;16.47;98468.28;4466804;32;35150;-83
2022/03/29 10:49:15;;;;;;;;;;;;;;;26.39;16.93;98465.16;4466931;32;33618;-83
2022/03/29 10:51:44;;;;;;;;;;;;;;;26.73;16.17;98453.25;4467148;32;34100;-84
2022/03/29 10:54:27;;;;;;;;;;;;;;;26.65;16.35;98455.56;4466966;32;34510;-83
2022/03/29 10:57:15;;;;;;;;;;;;;;;25.87;18.20;98444.47;4466940;32;33608;-83
2022/03/29 10:59:42;;;;;;;;;;;;;;;24.87;18.58;98439.69;4456143;32;34288;-83
2022/03/29 11:02:12;;;;;;;;;;;;;;;25.92;17.38;98435.28;4452537;32;34968;-84
2022/03/29 11:04:58;;;;;;;;;;;;;;;25.90;17.46;98436.31;4466977;32;34454;-83
2022/03/29 11:07:27;;;;;;;;;;;;;;;26.29;16.97;98421.50;4467266;32;34922;-83
2022/03/29 11:10:10;;;;;;;;;;;;;;;25.03;17.89;98423.75;4467317;32;34235;-84
2022/03/29 11:12:43;;;;;;;;;;;;;;;24.20;18.86;98420.44;4452742;32;33785;-84
2022/03/29 11:15:37;;;;;;;;;;;;;;;25.86;16.94;98408.25;4466989;32;34418;-84
2022/03/29 11:18:23;;;;;;;;;;;;;;;26.18;17.91;98404.44;4466632;32;33955;-83
2022/03/29 11:20:56;;;;;;;;;;;;;;;25.69;17.91;98403.97;4452466;32;32292;-83
2022/03/29 11:23:31;;;;;;;;;;;;;;;25.82;18.54;98398.78;4466606;32;34086;-83
2022/03/29 11:26:03;;;;;;;;;;;;;;;27.14;15.11;98383.22;4452540;32;33921;-83
2022/03/29 11:28:31;;;;;;;;;;;;;;;26.60;16.72;98388.53;4466469;32;34246;-83
2022/03/29 11:30:58;;;;;;;;;;;;;;;26.98;15.85;98374.53;4452509;32;33430;-83
2022/03/29 11:33:32;;;;;;;;;;;;;;;27.42;16.08;98368.84;4466105;32;34735;-84
2022/03/29 11:36:00;;;;;;;;;;;;;;;27.62;15.74;98367.50;4452446;32;34266;-83
2022/03/29 11:38:30;;;;;;;;;;;;;;;27.63;15.68;98367.38;4466322;32;34271;-83
2022/03/29 11:40:58;;;;;;;;;;;;;;;28.51;14.74;98356.69;4466449;32;34335;-87
2022/03/29 11:43:25;;;;;;;;;;;;;;;27.07;15.22;98361.44;4466202;32;34347;-83
2022/03/29 11:45:53;;;;;;;;;;;;;;;26.97;14.57;98355.03;4466172;32;34229;-83
2022/03/29 11:48:23;;;;;;;;;;;;;;;27.15;14.96;98351.16;4466158;32;35812;-83
2022/03/29 11:50:52;;;;;;;;;;;;;;;27.09;14.82;98346.25;4466414;32;33585;-83
2022/03/29 11:53:27;;;;;;;;;;;;;;;27.82;13.94;98339.50;4452036;32;33967;-83
2022/03/29 11:56:05;;;;;;;;;;;;;;;27.57;13.88;98340.31;4451947;32;34155;-84
2022/03/29 11:58:33;;;;;;;;;;;;;;;27.63;13.90;98322.13;4453474;32;33422;-84
2022/03/29 12:01:02;;;;;;;;;;;;;;;26.09;15.28;98337.75;4453950;32;33243;-83
2022/03/29 12:03:32;;;;;;;;;;;;;;;26.71;14.51;98324.87;4468301;32;34217;-83
2022/03/29 12:06:13;;;;;;;;;;;;;;;26.68;15.46;98317.09;4468284;32;35308;-83
2022/03/29 12:09:00;;;;;;;;;;;;;;;25.75;15.65;98325.72;4468299;32;34779;-83
2022/03/29 12:11:31;;;;;;;;;;;;;;;26.47;15.15;98316.69;4468105;32;33430;-84
2022/03/29 12:13:59;;;;;;;;;;;;;;;25.70;15.04;98312.75;4454224;32;35102;-83
2022/03/29 12:16:26;;;;;;;;;;;;;;;26.62;14.45;98326.31;4468101;32;34525;-83
2022/03/29 12:18:54;;;;;;;;;;;;;;;26.58;14.84;98316.84;4467885;32;35103;-83
2022/03/29 12:21:22;;;;;;;;;;;;;;;26.63;15.41;98300.59;4468182;32;34255;-85
2022/03/29 12:23:57;;;;;;;;;;;;;;;26.40;15.37;98297.62;4454269;32;33393;-83
2022/03/29 12:26:24;;;;;;;;;;;;;;;25.77;14.86;98305.25;4468278;32;34276;-83
2022/03/29 12:28:52;;;;;;;;;;;;;;;25.32;15.53;98309.81;4468472;32;33797;-84
2022/03/29 12:31:20;;;;;;;;;;;;;;;25.83;15.02;98300.41;4453699;32;33546;-83
2022/03/29 12:33:48;;;;;;;;;;;;;;;26.05;15.05;98293.75;4454349;32;33906;-84
2022/03/29 12:36:15;;;;;;;;;;;;;;;25.62;15.56;98283.19;4453757;32;34295;-83
2022/03/29 12:38:49;;;;;;;;;;;;;;;26.63;14.89;98287.28;4453969;32;34988;-83
2022/03/29 12:41:41;;;;;;;;;;;;;;;25.81;15.36;98282.91;4454011;32;32805;-84
2022/03/29 12:44:10;;;;;;;;;;;;;;;26.44;14.71;98271.69;4467866;32;35184;-83
2022/03/29 12:46:38;;;;;;;;;;;;;;;25.62;14.89;98278.72;4454066;32;34198;-84
2022/03/29 12:49:06;;;;;;;;;;;;;;;26.05;14.78;98272.50;4467939;32;34090;-83
2022/03/29 12:51:34;;;;;;;;;;;;;;;25.08;16.13;98265.22;4467931;32;33556;-83
2022/03/29 12:54:05;;;;;;;;;;;;;;;25.08;16.00;98256.41;4467972;32;34261;-83
2022/03/29 12:56:39;;;;;;;;;;;;;;;26.04;14.99;98255.72;4467863;32;34435;-83
2022/03/29 12:59:25;;;;;;;;;;;;;;;26.30;14.90;98254.00;4426464;32;875089;-84
2022/03/29 13:01:53;;;;;;;;;;;;;;;27.01;14.16;98243.94;4467735;32;33952;-83
2022/03/29 13:04:21;;;;;;;;;;;;;;;26.64;14.42;98242.00;4454269;32;33783;-83
2022/03/29 13:06:48;;;;;;;;;;;;;;;26.72;14.42;98248.63;4454017;32;35294;-83
2022/03/29 13:09:16;;;;;;;;;;;;;;;27.13;13.66;98251.12;4467726;32;34138;-83
2022/03/29 13:11:44;;;;;;;;;;;;;;;26.78;13.97;98235.75;4467986;32;33696;-88